sensor_id;sensor_type;location;lat;lon;timestamp;P1;durP1;ratioP1;P2;durP2;ratioP2
17398;SDS011;8817;48.170;8.592;2022-08-03T00:01:41;3.40;;;3.40;;
17398;SDS011;8817;48.170;8.592;2022-08-03T00:04:09;3.60;;;3.60;;
17398;SDS011;8817;48.170;8.592;2022-08-03T00:06:36;3.40;;;3.40;;
17398;SDS011;8817;48.170;8.592;2022-08-03T00:09:04;3.40;;;3.40;;
17398;SDS011;8817;48.170;8.592;2022-08-03T00:11:31;3.40;;;3.40;;
17398;SDS011;8817;48.170;8.592;2022-08-03T00:13:58;3.40;;;3.40;;
17398;SDS011;8817;48.170;8.592;2022-08-03T00:16:25;3.50;;;3.50;;
17398;SDS011;8817;48.170;8.592;2022-08-03T00:18:53;3.50;;;3.50;;
17398;SDS011;8817;48.170;8.592;2022-08-03T00:21:20;3.40;;;3.40;;
17398;SDS011;8817;48.170;8.592;2022-08-03T00:23:47;3.50;;;3.50;;
17398;SDS011;8817;48.170;8.592;2022-08-03T00:26:14;3.70;;;3.70;;
17398;SDS011;8817;48.170;8.592;2022-08-03T00:28:41;3.60;;;3.60;;
17398;SDS011;8817;48.170;8.592;2022-08-03T00:31:08;3.72;;;3.72;;
17398;SDS011;8817;48.170;8.592;2022-08-03T00:33:35;3.60;;;3.60;;
17398;SDS011;8817;48.170;8.592;2022-08-03T00:36:04;3.50;;;3.50;;
17398;SDS011;8817;48.170;8.592;2022-08-03T00:38:31;3.60;;;3.60;;
17398;SDS011;8817;48.170;8.592;2022-08-03T00:40:58;3.60;;;3.60;;
17398;SDS011;8817;48.170;8.592;2022-08-03T00:43:25;3.50;;;3.50;;
17398;SDS011;8817;48.170;8.592;2022-08-03T00:45:52;3.53;;;3.53;;
17398;SDS011;8817;48.170;8.592;2022-08-03T00:48:19;3.45;;;3.45;;
17398;SDS011;8817;48.170;8.592;2022-08-03T00:50:46;3.60;;;3.60;;
17398;SDS011;8817;48.170;8.592;2022-08-03T00:53:15;3.50;;;3.50;;
17398;SDS011;8817;48.170;8.592;2022-08-03T00:55:42;3.47;;;3.47;;
17398;SDS011;8817;48.170;8.592;2022-08-03T00:58:09;3.47;;;3.47;;
17398;SDS011;8817;48.170;8.592;2022-08-03T01:00:37;3.40;;;3.40;;
17398;SDS011;8817;48.170;8.592;2022-08-03T01:03:05;3.47;;;3.47;;
17398;SDS011;8817;48.170;8.592;2022-08-03T01:05:35;3.30;;;3.30;;
17398;SDS011;8817;48.170;8.592;2022-08-03T01:08:10;3.30;;;3.30;;
17398;SDS011;8817;48.170;8.592;2022-08-03T01:10:47;3.30;;;3.30;;
17398;SDS011;8817;48.170;8.592;2022-08-03T01:13:20;3.58;;;3.58;;
17398;SDS011;8817;48.170;8.592;2022-08-03T01:15:54;3.60;;;3.60;;
17398;SDS011;8817;48.170;8.592;2022-08-03T01:18:27;3.50;;;3.50;;
17398;SDS011;8817;48.170;8.592;2022-08-03T01:21:00;3.50;;;3.50;;
17398;SDS011;8817;48.170;8.592;2022-08-03T01:23:39;3.50;;;3.50;;
17398;SDS011;8817;48.170;8.592;2022-08-03T01:26:22;3.50;;;3.50;;
17398;SDS011;8817;48.170;8.592;2022-08-03T01:29:07;3.30;;;3.30;;
17398;SDS011;8817;48.170;8.592;2022-08-03T01:31:56;3.30;;;3.30;;
17398;SDS011;8817;48.170;8.592;2022-08-03T01:34:28;3.30;;;3.30;;
17398;SDS011;8817;48.170;8.592;2022-08-03T01:36:59;3.30;;;3.30;;
17398;SDS011;8817;48.170;8.592;2022-08-03T01:39:31;3.40;;;3.40;;
17398;SDS011;8817;48.170;8.592;2022-08-03T01:42:02;3.30;;;3.30;;
17398;SDS011;8817;48.170;8.592;2022-08-03T01:44:35;3.30;;;3.30;;
17398;SDS011;8817;48.170;8.592;2022-08-03T01:47:07;3.30;;;3.30;;
17398;SDS011;8817;48.170;8.592;2022-08-03T01:49:37;3.30;;;3.30;;
17398;SDS011;8817;48.170;8.592;2022-08-03T01:52:05;3.50;;;3.50;;
17398;SDS011;8817;48.170;8.592;2022-08-03T01:54:34;3.30;;;3.30;;
17398;SDS011;8817;48.170;8.592;2022-08-03T01:57:03;3.20;;;3.20;;
17398;SDS011;8817;48.170;8.592;2022-08-03T01:59:31;3.30;;;3.30;;
17398;SDS011;8817;48.170;8.592;2022-08-03T02:02:00;3.20;;;3.20;;
17398;SDS011;8817;48.170;8.592;2022-08-03T02:04:30;3.30;;;3.30;;
17398;SDS011;8817;48.170;8.592;2022-08-03T02:06:58;3.30;;;3.30;;
17398;SDS011;8817;48.170;8.592;2022-08-03T02:09:27;3.40;;;3.40;;
17398;SDS011;8817;48.170;8.592;2022-08-03T02:11:55;3.30;;;3.30;;
17398;SDS011;8817;48.170;8.592;2022-08-03T02:14:24;3.30;;;3.30;;
17398;SDS011;8817;48.170;8.592;2022-08-03T02:16:53;3.30;;;3.30;;
17398;SDS011;8817;48.170;8.592;2022-08-03T02:19:22;3.40;;;3.40;;
17398;SDS011;8817;48.170;8.592;2022-08-03T02:21:53;3.30;;;3.30;;
17398;SDS011;8817;48.170;8.592;2022-08-03T02:24:20;3.35;;;3.35;;
17398;SDS011;8817;48.170;8.592;2022-08-03T02:26:47;3.50;;;3.50;;
17398;SDS011;8817;48.170;8.592;2022-08-03T02:29:17;3.38;;;3.38;;
17398;SDS011;8817;48.170;8.592;2022-08-03T02:31:47;3.30;;;3.30;;
17398;SDS011;8817;48.170;8.592;2022-08-03T02:34:15;3.40;;;3.40;;
17398;SDS011;8817;48.170;8.592;2022-08-03T02:36:47;3.30;;;3.30;;
17398;SDS011;8817;48.170;8.592;2022-08-03T02:39:19;3.30;;;3.30;;
17398;SDS011;8817;48.170;8.592;2022-08-03T02:41:50;3.30;;;3.30;;
17398;SDS011;8817;48.170;8.592;2022-08-03T02:44:26;3.22;;;3.22;;
17398;SDS011;8817;48.170;8.592;2022-08-03T02:46:55;3.40;;;3.40;;
17398;SDS011;8817;48.170;8.592;2022-08-03T02:49:25;3.40;;;3.40;;
17398;SDS011;8817;48.170;8.592;2022-08-03T02:51:54;3.50;;;3.50;;
17398;SDS011;8817;48.170;8.592;2022-08-03T02:54:25;3.40;;;3.40;;
17398;SDS011;8817;48.170;8.592;2022-08-03T02:56:53;3.40;;;3.40;;
17398;SDS011;8817;48.170;8.592;2022-08-03T02:59:22;3.50;;;3.50;;
17398;SDS011;8817;48.170;8.592;2022-08-03T03:01:49;3.42;;;3.42;;
17398;SDS011;8817;48.170;8.592;2022-08-03T03:04:18;3.50;;;3.50;;
17398;SDS011;8817;48.170;8.592;2022-08-03T03:06:47;3.50;;;3.50;;
17398;SDS011;8817;48.170;8.592;2022-08-03T03:09:15;3.50;;;3.50;;
17398;SDS011;8817;48.170;8.592;2022-08-03T03:11:45;3.70;;;3.70;;
17398;SDS011;8817;48.170;8.592;2022-08-03T03:14:14;3.67;;;3.67;;
17398;SDS011;8817;48.170;8.592;2022-08-03T03:16:42;3.70;;;3.70;;
17398;SDS011;8817;48.170;8.592;2022-08-03T03:19:11;3.50;;;3.50;;
17398;SDS011;8817;48.170;8.592;2022-08-03T03:21:40;3.70;;;3.70;;
17398;SDS011;8817;48.170;8.592;2022-08-03T03:24:09;3.70;;;3.70;;
17398;SDS011;8817;48.170;8.592;2022-08-03T03:26:36;3.70;;;3.70;;
17398;SDS011;8817;48.170;8.592;2022-08-03T03:29:05;3.60;;;3.60;;
17398;SDS011;8817;48.170;8.592;2022-08-03T03:31:33;3.58;;;3.58;;
17398;SDS011;8817;48.170;8.592;2022-08-03T03:34:01;3.50;;;3.50;;
17398;SDS011;8817;48.170;8.592;2022-08-03T03:36:29;3.60;;;3.60;;
17398;SDS011;8817;48.170;8.592;2022-08-03T03:38:56;3.50;;;3.50;;
17398;SDS011;8817;48.170;8.592;2022-08-03T03:41:23;3.50;;;3.50;;
17398;SDS011;8817;48.170;8.592;2022-08-03T03:43:50;3.55;;;3.55;;
17398;SDS011;8817;48.170;8.592;2022-08-03T03:46:19;3.50;;;3.50;;
17398;SDS011;8817;48.170;8.592;2022-08-03T03:48:46;3.60;;;3.60;;
17398;SDS011;8817;48.170;8.592;2022-08-03T03:51:13;3.40;;;3.40;;
17398;SDS011;8817;48.170;8.592;2022-08-03T03:53:42;3.30;;;3.30;;
17398;SDS011;8817;48.170;8.592;2022-08-03T03:56:20;3.50;;;3.50;;
17398;SDS011;8817;48.170;8.592;2022-08-03T03:58:47;3.50;;;3.50;;
17398;SDS011;8817;48.170;8.592;2022-08-03T04:01:14;3.47;;;3.47;;
17398;SDS011;8817;48.170;8.592;2022-08-03T04:03:42;3.70;;;3.70;;
17398;SDS011;8817;48.170;8.592;2022-08-03T04:06:10;3.65;;;3.65;;
17398;SDS011;8817;48.170;8.592;2022-08-03T04:08:55;3.72;;;3.72;;
17398;SDS011;8817;48.170;8.592;2022-08-03T04:11:39;3.70;;;3.70;;
17398;SDS011;8817;48.170;8.592;2022-08-03T04:14:11;3.80;;;3.80;;
17398;SDS011;8817;48.170;8.592;2022-08-03T04:16:42;3.90;;;3.90;;
17398;SDS011;8817;48.170;8.592;2022-08-03T04:19:14;3.90;;;3.90;;
17398;SDS011;8817;48.170;8.592;2022-08-03T04:21:45;3.70;;;3.70;;
17398;SDS011;8817;48.170;8.592;2022-08-03T04:24:14;3.80;;;3.80;;
17398;SDS011;8817;48.170;8.592;2022-08-03T04:26:42;3.50;;;3.50;;
17398;SDS011;8817;48.170;8.592;2022-08-03T04:29:12;3.60;;;3.60;;
17398;SDS011;8817;48.170;8.592;2022-08-03T04:31:40;3.60;;;3.60;;
17398;SDS011;8817;48.170;8.592;2022-08-03T04:34:08;3.70;;;3.70;;
17398;SDS011;8817;48.170;8.592;2022-08-03T04:36:38;3.50;;;3.50;;
17398;SDS011;8817;48.170;8.592;2022-08-03T04:39:12;3.60;;;3.60;;
17398;SDS011;8817;48.170;8.592;2022-08-03T04:41:42;3.60;;;3.60;;
17398;SDS011;8817;48.170;8.592;2022-08-03T04:44:10;3.90;;;3.90;;
17398;SDS011;8817;48.170;8.592;2022-08-03T04:46:39;3.80;;;3.80;;
17398;SDS011;8817;48.170;8.592;2022-08-03T04:49:08;3.40;;;3.40;;
17398;SDS011;8817;48.170;8.592;2022-08-03T04:51:37;3.30;;;3.30;;
17398;SDS011;8817;48.170;8.592;2022-08-03T04:54:05;3.45;;;3.45;;
17398;SDS011;8817;48.170;8.592;2022-08-03T04:56:32;3.40;;;3.40;;
17398;SDS011;8817;48.170;8.592;2022-08-03T04:58:59;3.10;;;3.10;;
17398;SDS011;8817;48.170;8.592;2022-08-03T05:01:27;3.20;;;3.20;;
17398;SDS011;8817;48.170;8.592;2022-08-03T05:03:54;3.10;;;3.10;;
17398;SDS011;8817;48.170;8.592;2022-08-03T05:06:21;3.38;;;3.38;;
17398;SDS011;8817;48.170;8.592;2022-08-03T05:08:50;3.15;;;3.15;;
17398;SDS011;8817;48.170;8.592;2022-08-03T05:11:17;3.10;;;3.10;;
17398;SDS011;8817;48.170;8.592;2022-08-03T05:13:44;3.20;;;3.20;;
17398;SDS011;8817;48.170;8.592;2022-08-03T05:16:11;3.30;;;3.30;;
17398;SDS011;8817;48.170;8.592;2022-08-03T05:18:39;3.20;;;3.20;;
17398;SDS011;8817;48.170;8.592;2022-08-03T05:21:06;3.10;;;3.10;;
17398;SDS011;8817;48.170;8.592;2022-08-03T05:23:33;3.30;;;3.30;;
17398;SDS011;8817;48.170;8.592;2022-08-03T05:26:02;3.30;;;3.30;;
17398;SDS011;8817;48.170;8.592;2022-08-03T05:28:29;3.40;;;3.40;;
17398;SDS011;8817;48.170;8.592;2022-08-03T05:30:56;3.30;;;3.30;;
17398;SDS011;8817;48.170;8.592;2022-08-03T05:33:23;3.33;;;3.33;;
17398;SDS011;8817;48.170;8.592;2022-08-03T05:35:50;3.42;;;3.42;;
17398;SDS011;8817;48.170;8.592;2022-08-03T05:38:16;3.35;;;3.35;;
17398;SDS011;8817;48.170;8.592;2022-08-03T05:40:43;3.20;;;3.20;;
17398;SDS011;8817;48.170;8.592;2022-08-03T05:43:12;3.10;;;3.10;;
17398;SDS011;8817;48.170;8.592;2022-08-03T05:45:39;3.30;;;3.30;;
17398;SDS011;8817;48.170;8.592;2022-08-03T05:48:06;3.47;;;3.47;;
17398;SDS011;8817;48.170;8.592;2022-08-03T05:50:33;3.75;;;3.75;;
17398;SDS011;8817;48.170;8.592;2022-08-03T05:53:00;3.60;;;3.60;;
17398;SDS011;8817;48.170;8.592;2022-08-03T05:55:27;3.70;;;3.70;;
17398;SDS011;8817;48.170;8.592;2022-08-03T05:57:54;3.47;;;3.47;;
17398;SDS011;8817;48.170;8.592;2022-08-03T06:00:23;3.30;;;3.30;;
17398;SDS011;8817;48.170;8.592;2022-08-03T06:02:50;3.35;;;3.35;;
17398;SDS011;8817;48.170;8.592;2022-08-03T06:05:17;3.20;;;3.20;;
17398;SDS011;8817;48.170;8.592;2022-08-03T06:07:44;3.10;;;3.10;;
17398;SDS011;8817;48.170;8.592;2022-08-03T06:10:11;3.20;;;3.20;;
17398;SDS011;8817;48.170;8.592;2022-08-03T06:12:38;3.30;;;3.30;;
17398;SDS011;8817;48.170;8.592;2022-08-03T06:15:06;3.30;;;3.30;;
17398;SDS011;8817;48.170;8.592;2022-08-03T06:17:40;3.28;;;3.28;;
17398;SDS011;8817;48.170;8.592;2022-08-03T06:20:10;3.30;;;3.30;;
17398;SDS011;8817;48.170;8.592;2022-08-03T06:22:37;3.50;;;3.50;;
17398;SDS011;8817;48.170;8.592;2022-08-03T06:25:04;3.42;;;3.42;;
17398;SDS011;8817;48.170;8.592;2022-08-03T06:27:32;3.17;;;3.17;;
17398;SDS011;8817;48.170;8.592;2022-08-03T06:30:00;3.20;;;3.20;;
17398;SDS011;8817;48.170;8.592;2022-08-03T06:32:27;3.20;;;3.20;;
17398;SDS011;8817;48.170;8.592;2022-08-03T06:34:56;3.10;;;3.10;;
17398;SDS011;8817;48.170;8.592;2022-08-03T06:37:23;3.20;;;3.20;;
17398;SDS011;8817;48.170;8.592;2022-08-03T06:39:51;3.22;;;3.22;;
17398;SDS011;8817;48.170;8.592;2022-08-03T06:42:18;3.30;;;3.30;;
17398;SDS011;8817;48.170;8.592;2022-08-03T06:44:45;3.28;;;3.28;;
17398;SDS011;8817;48.170;8.592;2022-08-03T06:47:12;3.30;;;3.30;;
17398;SDS011;8817;48.170;8.592;2022-08-03T06:49:39;3.30;;;3.30;;
17398;SDS011;8817;48.170;8.592;2022-08-03T06:52:07;3.30;;;3.30;;
17398;SDS011;8817;48.170;8.592;2022-08-03T06:54:34;3.20;;;3.20;;
17398;SDS011;8817;48.170;8.592;2022-08-03T06:57:01;3.33;;;3.33;;
17398;SDS011;8817;48.170;8.592;2022-08-03T06:59:29;3.38;;;3.38;;
17398;SDS011;8817;48.170;8.592;2022-08-03T07:01:56;3.70;;;3.70;;
17398;SDS011;8817;48.170;8.592;2022-08-03T07:04:23;3.70;;;3.70;;
17398;SDS011;8817;48.170;8.592;2022-08-03T07:06:50;3.70;;;3.70;;
17398;SDS011;8817;48.170;8.592;2022-08-03T07:09:19;3.70;;;3.70;;
17398;SDS011;8817;48.170;8.592;2022-08-03T07:11:46;3.60;;;3.60;;
17398;SDS011;8817;48.170;8.592;2022-08-03T07:14:13;3.70;;;3.70;;
17398;SDS011;8817;48.170;8.592;2022-08-03T07:16:40;3.60;;;3.60;;
17398;SDS011;8817;48.170;8.592;2022-08-03T07:19:07;3.80;;;3.80;;
17398;SDS011;8817;48.170;8.592;2022-08-03T07:21:34;3.60;;;3.60;;
17398;SDS011;8817;48.170;8.592;2022-08-03T07:24:01;3.90;;;3.90;;
17398;SDS011;8817;48.170;8.592;2022-08-03T07:26:30;3.80;;;3.80;;
17398;SDS011;8817;48.170;8.592;2022-08-03T07:28:57;3.80;;;3.80;;
17398;SDS011;8817;48.170;8.592;2022-08-03T07:31:24;4.00;;;4.00;;
17398;SDS011;8817;48.170;8.592;2022-08-03T07:33:51;3.70;;;3.70;;
17398;SDS011;8817;48.170;8.592;2022-08-03T07:36:18;3.60;;;3.60;;
17398;SDS011;8817;48.170;8.592;2022-08-03T07:38:45;3.47;;;3.47;;
17398;SDS011;8817;48.170;8.592;2022-08-03T07:41:12;3.40;;;3.40;;
17398;SDS011;8817;48.170;8.592;2022-08-03T07:43:41;3.90;;;3.90;;
17398;SDS011;8817;48.170;8.592;2022-08-03T07:46:08;3.63;;;3.63;;
17398;SDS011;8817;48.170;8.592;2022-08-03T07:48:34;3.60;;;3.60;;
17398;SDS011;8817;48.170;8.592;2022-08-03T07:51:01;3.60;;;3.60;;
17398;SDS011;8817;48.170;8.592;2022-08-03T07:53:29;3.60;;;3.60;;
17398;SDS011;8817;48.170;8.592;2022-08-03T07:55:56;3.60;;;3.60;;
17398;SDS011;8817;48.170;8.592;2022-08-03T07:58:23;3.92;;;3.92;;
17398;SDS011;8817;48.170;8.592;2022-08-03T08:00:52;3.80;;;3.80;;
17398;SDS011;8817;48.170;8.592;2022-08-03T08:03:19;3.80;;;3.80;;
17398;SDS011;8817;48.170;8.592;2022-08-03T08:05:47;3.60;;;3.60;;
17398;SDS011;8817;48.170;8.592;2022-08-03T08:08:14;3.40;;;3.40;;
17398;SDS011;8817;48.170;8.592;2022-08-03T08:10:41;3.65;;;3.65;;
17398;SDS011;8817;48.170;8.592;2022-08-03T08:13:08;3.60;;;3.60;;
17398;SDS011;8817;48.170;8.592;2022-08-03T08:15:35;3.58;;;3.58;;
17398;SDS011;8817;48.170;8.592;2022-08-03T08:18:04;3.70;;;3.70;;
17398;SDS011;8817;48.170;8.592;2022-08-03T08:20:32;3.70;;;3.70;;
17398;SDS011;8817;48.170;8.592;2022-08-03T08:23:02;3.80;;;3.80;;
17398;SDS011;8817;48.170;8.592;2022-08-03T08:25:30;3.60;;;3.60;;
17398;SDS011;8817;48.170;8.592;2022-08-03T08:27:59;3.80;;;3.80;;
17398;SDS011;8817;48.170;8.592;2022-08-03T08:30:28;3.90;;;3.90;;
17398;SDS011;8817;48.170;8.592;2022-08-03T08:32:56;6.75;;;6.25;;
17398;SDS011;8817;48.170;8.592;2022-08-03T08:35:24;4.85;;;4.40;;
17398;SDS011;8817;48.170;8.592;2022-08-03T08:37:51;3.50;;;3.40;;
17398;SDS011;8817;48.170;8.592;2022-08-03T08:40:19;2.92;;;2.83;;
17398;SDS011;8817;48.170;8.592;2022-08-03T08:42:47;2.53;;;2.50;;
17398;SDS011;8817;48.170;8.592;2022-08-03T08:45:14;2.60;;;2.60;;
17398;SDS011;8817;48.170;8.592;2022-08-03T08:47:43;2.63;;;2.53;;
17398;SDS011;8817;48.170;8.592;2022-08-03T08:50:12;2.90;;;2.70;;
17398;SDS011;8817;48.170;8.592;2022-08-03T08:52:42;2.83;;;2.72;;
17398;SDS011;8817;48.170;8.592;2022-08-03T08:55:13;2.80;;;2.80;;
17398;SDS011;8817;48.170;8.592;2022-08-03T08:57:41;2.95;;;2.70;;
17398;SDS011;8817;48.170;8.592;2022-08-03T09:00:12;2.83;;;2.70;;
17398;SDS011;8817;48.170;8.592;2022-08-03T09:02:40;5.05;;;2.65;;
17398;SDS011;8817;48.170;8.592;2022-08-03T09:05:09;3.00;;;2.90;;
17398;SDS011;8817;48.170;8.592;2022-08-03T09:07:37;2.63;;;2.58;;
17398;SDS011;8817;48.170;8.592;2022-08-03T09:10:07;2.38;;;2.38;;
17398;SDS011;8817;48.170;8.592;2022-08-03T09:12:38;2.63;;;2.40;;
17398;SDS011;8817;48.170;8.592;2022-08-03T09:15:20;2.70;;;2.50;;
17398;SDS011;8817;48.170;8.592;2022-08-03T09:17:48;2.60;;;2.60;;
17398;SDS011;8817;48.170;8.592;2022-08-03T09:20:17;2.60;;;2.50;;
17398;SDS011;8817;48.170;8.592;2022-08-03T09:22:52;2.85;;;2.75;;
17398;SDS011;8817;48.170;8.592;2022-08-03T09:25:28;2.40;;;2.40;;
17398;SDS011;8817;48.170;8.592;2022-08-03T09:28:03;2.10;;;2.10;;
17398;SDS011;8817;48.170;8.592;2022-08-03T09:30:33;2.25;;;2.25;;
17398;SDS011;8817;48.170;8.592;2022-08-03T09:33:01;4.65;;;2.40;;
17398;SDS011;8817;48.170;8.592;2022-08-03T09:35:29;2.35;;;2.35;;
17398;SDS011;8817;48.170;8.592;2022-08-03T09:38:12;2.20;;;2.20;;
17398;SDS011;8817;48.170;8.592;2022-08-03T09:40:41;2.13;;;2.10;;
17398;SDS011;8817;48.170;8.592;2022-08-03T09:43:10;3.63;;;2.00;;
17398;SDS011;8817;48.170;8.592;2022-08-03T09:45:38;1.98;;;1.98;;
17398;SDS011;8817;48.170;8.592;2022-08-03T09:48:18;2.10;;;2.10;;
17398;SDS011;8817;48.170;8.592;2022-08-03T09:50:47;2.05;;;2.05;;
17398;SDS011;8817;48.170;8.592;2022-08-03T09:53:14;2.20;;;2.20;;
17398;SDS011;8817;48.170;8.592;2022-08-03T09:55:50;2.13;;;2.13;;
17398;SDS011;8817;48.170;8.592;2022-08-03T09:58:19;2.10;;;2.10;;
17398;SDS011;8817;48.170;8.592;2022-08-03T10:00:57;2.22;;;2.05;;
17398;SDS011;8817;48.170;8.592;2022-08-03T10:03:26;2.40;;;2.30;;
17398;SDS011;8817;48.170;8.592;2022-08-03T10:05:54;2.97;;;2.30;;
17398;SDS011;8817;48.170;8.592;2022-08-03T10:08:21;2.00;;;2.00;;
17398;SDS011;8817;48.170;8.592;2022-08-03T10:10:50;2.20;;;2.20;;
17398;SDS011;8817;48.170;8.592;2022-08-03T10:13:20;2.28;;;2.28;;
17398;SDS011;8817;48.170;8.592;2022-08-03T10:15:47;2.50;;;2.50;;
17398;SDS011;8817;48.170;8.592;2022-08-03T10:18:15;2.40;;;2.38;;
17398;SDS011;8817;48.170;8.592;2022-08-03T10:20:43;2.30;;;2.30;;
17398;SDS011;8817;48.170;8.592;2022-08-03T10:23:14;2.50;;;2.40;;
17398;SDS011;8817;48.170;8.592;2022-08-03T10:25:43;2.42;;;2.42;;
17398;SDS011;8817;48.170;8.592;2022-08-03T10:28:15;2.55;;;2.50;;
17398;SDS011;8817;48.170;8.592;2022-08-03T10:30:47;2.75;;;2.60;;
17398;SDS011;8817;48.170;8.592;2022-08-03T10:33:16;2.45;;;2.45;;
17398;SDS011;8817;48.170;8.592;2022-08-03T10:35:45;2.75;;;2.67;;
17398;SDS011;8817;48.170;8.592;2022-08-03T10:38:15;2.70;;;2.60;;
17398;SDS011;8817;48.170;8.592;2022-08-03T10:40:45;2.70;;;2.60;;
17398;SDS011;8817;48.170;8.592;2022-08-03T10:43:17;2.50;;;2.50;;
17398;SDS011;8817;48.170;8.592;2022-08-03T10:45:45;2.85;;;2.75;;
17398;SDS011;8817;48.170;8.592;2022-08-03T10:48:13;3.00;;;2.90;;
17398;SDS011;8817;48.170;8.592;2022-08-03T10:50:40;2.58;;;2.58;;
17398;SDS011;8817;48.170;8.592;2022-08-03T10:53:08;2.70;;;2.70;;
17398;SDS011;8817;48.170;8.592;2022-08-03T10:55:35;2.90;;;2.80;;
17398;SDS011;8817;48.170;8.592;2022-08-03T11:01:15;3.20;;;3.10;;
17398;SDS011;8817;48.170;8.592;2022-08-03T11:06:42;3.35;;;3.25;;
17398;SDS011;8817;48.170;8.592;2022-08-03T11:09:15;3.40;;;3.30;;
17398;SDS011;8817;48.170;8.592;2022-08-03T11:11:43;3.38;;;3.28;;
17398;SDS011;8817;48.170;8.592;2022-08-03T11:14:14;3.47;;;3.38;;
17398;SDS011;8817;48.170;8.592;2022-08-03T11:16:43;3.40;;;3.30;;
17398;SDS011;8817;48.170;8.592;2022-08-03T11:19:12;3.58;;;3.30;;
17398;SDS011;8817;48.170;8.592;2022-08-03T11:21:56;3.38;;;3.28;;
17398;SDS011;8817;48.170;8.592;2022-08-03T11:27:22;3.75;;;3.58;;
17398;SDS011;8817;48.170;8.592;2022-08-03T11:29:54;3.70;;;3.60;;
17398;SDS011;8817;48.170;8.592;2022-08-03T11:35:25;3.50;;;3.40;;
17398;SDS011;8817;48.170;8.592;2022-08-03T11:38:01;3.70;;;3.50;;
17398;SDS011;8817;48.170;8.592;2022-08-03T11:40:49;3.88;;;3.78;;
17398;SDS011;8817;48.170;8.592;2022-08-03T11:46:13;4.00;;;3.80;;
17398;SDS011;8817;48.170;8.592;2022-08-03T11:48:46;3.72;;;3.53;;
17398;SDS011;8817;48.170;8.592;2022-08-03T11:51:21;3.85;;;3.75;;
17398;SDS011;8817;48.170;8.592;2022-08-03T11:53:53;3.85;;;3.75;;
17398;SDS011;8817;48.170;8.592;2022-08-03T11:56:21;3.92;;;3.83;;
17398;SDS011;8817;48.170;8.592;2022-08-03T11:58:48;3.70;;;3.60;;
17398;SDS011;8817;48.170;8.592;2022-08-03T12:01:19;3.88;;;3.78;;
17398;SDS011;8817;48.170;8.592;2022-08-03T12:03:47;3.92;;;3.83;;
17398;SDS011;8817;48.170;8.592;2022-08-03T12:06:14;3.92;;;3.83;;
17398;SDS011;8817;48.170;8.592;2022-08-03T12:08:42;3.88;;;3.78;;
17398;SDS011;8817;48.170;8.592;2022-08-03T12:11:10;4.15;;;3.95;;
17398;SDS011;8817;48.170;8.592;2022-08-03T12:13:39;4.22;;;4.13;;
17398;SDS011;8817;48.170;8.592;2022-08-03T12:16:07;4.22;;;4.13;;
17398;SDS011;8817;48.170;8.592;2022-08-03T12:18:36;4.43;;;4.32;;
17398;SDS011;8817;48.170;8.592;2022-08-03T12:21:04;4.22;;;4.13;;
17398;SDS011;8817;48.170;8.592;2022-08-03T12:23:33;4.57;;;4.38;;
17398;SDS011;8817;48.170;8.592;2022-08-03T12:26:01;4.53;;;4.43;;
17398;SDS011;8817;48.170;8.592;2022-08-03T12:28:29;4.68;;;4.47;;
17398;SDS011;8817;48.170;8.592;2022-08-03T12:30:59;4.72;;;4.53;;
17398;SDS011;8817;48.170;8.592;2022-08-03T12:33:27;4.68;;;4.45;;
17398;SDS011;8817;48.170;8.592;2022-08-03T12:36:03;4.53;;;4.43;;
17398;SDS011;8817;48.170;8.592;2022-08-03T12:38:32;5.15;;;4.63;;
17398;SDS011;8817;48.170;8.592;2022-08-03T12:41:02;5.10;;;4.80;;
17398;SDS011;8817;48.170;8.592;2022-08-03T12:43:31;5.10;;;4.90;;
17398;SDS011;8817;48.170;8.592;2022-08-03T12:46:11;5.00;;;4.90;;
17398;SDS011;8817;48.170;8.592;2022-08-03T12:49:02;5.20;;;5.00;;
17398;SDS011;8817;48.170;8.592;2022-08-03T12:51:33;5.03;;;4.82;;
17398;SDS011;8817;48.170;8.592;2022-08-03T12:54:01;5.10;;;4.90;;
17398;SDS011;8817;48.170;8.592;2022-08-03T12:56:29;5.00;;;4.80;;
17398;SDS011;8817;48.170;8.592;2022-08-03T12:58:56;4.85;;;4.65;;
17398;SDS011;8817;48.170;8.592;2022-08-03T13:01:23;5.20;;;5.00;;
17398;SDS011;8817;48.170;8.592;2022-08-03T13:03:52;5.10;;;4.90;;
17398;SDS011;8817;48.170;8.592;2022-08-03T13:06:19;5.85;;;5.30;;
17398;SDS011;8817;48.170;8.592;2022-08-03T13:08:50;4.80;;;4.70;;
17398;SDS011;8817;48.170;8.592;2022-08-03T13:11:27;4.90;;;4.80;;
17398;SDS011;8817;48.170;8.592;2022-08-03T13:13:54;5.13;;;4.82;;
17398;SDS011;8817;48.170;8.592;2022-08-03T13:16:21;5.10;;;4.90;;
17398;SDS011;8817;48.170;8.592;2022-08-03T13:18:49;5.10;;;4.90;;
17398;SDS011;8817;48.170;8.592;2022-08-03T13:21:17;5.20;;;4.90;;
17398;SDS011;8817;48.170;8.592;2022-08-03T13:23:45;5.00;;;4.80;;
17398;SDS011;8817;48.170;8.592;2022-08-03T13:26:14;5.47;;;5.05;;
17398;SDS011;8817;48.170;8.592;2022-08-03T13:28:41;5.50;;;5.20;;
17398;SDS011;8817;48.170;8.592;2022-08-03T13:31:08;5.10;;;4.90;;
17398;SDS011;8817;48.170;8.592;2022-08-03T13:33:35;5.22;;;5.03;;
17398;SDS011;8817;48.170;8.592;2022-08-03T13:36:03;5.40;;;5.20;;
17398;SDS011;8817;48.170;8.592;2022-08-03T13:38:30;5.28;;;5.05;;
17398;SDS011;8817;48.170;8.592;2022-08-03T13:40:57;5.40;;;5.20;;
17398;SDS011;8817;48.170;8.592;2022-08-03T13:43:28;5.30;;;5.10;;
17398;SDS011;8817;48.170;8.592;2022-08-03T13:45:55;4.80;;;4.65;;
17398;SDS011;8817;48.170;8.592;2022-08-03T13:48:22;5.00;;;4.80;;
17398;SDS011;8817;48.170;8.592;2022-08-03T13:50:49;4.90;;;4.80;;
17398;SDS011;8817;48.170;8.592;2022-08-03T13:53:16;4.70;;;4.60;;
17398;SDS011;8817;48.170;8.592;2022-08-03T13:55:43;5.45;;;5.05;;
17398;SDS011;8817;48.170;8.592;2022-08-03T13:58:10;4.88;;;4.72;;
17398;SDS011;8817;48.170;8.592;2022-08-03T14:00:39;5.10;;;4.80;;
17398;SDS011;8817;48.170;8.592;2022-08-03T14:03:06;5.05;;;4.85;;
17398;SDS011;8817;48.170;8.592;2022-08-03T14:05:33;5.70;;;5.45;;
17398;SDS011;8817;48.170;8.592;2022-08-03T14:08:02;4.97;;;4.68;;
17398;SDS011;8817;48.170;8.592;2022-08-03T14:10:31;5.10;;;4.90;;
17398;SDS011;8817;48.170;8.592;2022-08-03T14:12:58;5.10;;;4.90;;
17398;SDS011;8817;48.170;8.592;2022-08-03T14:15:26;5.10;;;4.90;;
17398;SDS011;8817;48.170;8.592;2022-08-03T14:17:54;5.10;;;4.90;;
17398;SDS011;8817;48.170;8.592;2022-08-03T14:20:21;5.10;;;4.90;;
17398;SDS011;8817;48.170;8.592;2022-08-03T14:22:49;5.10;;;4.90;;
17398;SDS011;8817;48.170;8.592;2022-08-03T14:25:16;5.30;;;4.88;;
17398;SDS011;8817;48.170;8.592;2022-08-03T14:27:43;5.32;;;5.13;;
17398;SDS011;8817;48.170;8.592;2022-08-03T14:30:10;5.50;;;5.20;;
17398;SDS011;8817;48.170;8.592;2022-08-03T14:32:37;5.53;;;5.30;;
17398;SDS011;8817;48.170;8.592;2022-08-03T14:35:06;5.22;;;5.03;;
17398;SDS011;8817;48.170;8.592;2022-08-03T14:37:34;5.30;;;5.10;;
17398;SDS011;8817;48.170;8.592;2022-08-03T14:40:01;5.28;;;5.07;;
17398;SDS011;8817;48.170;8.592;2022-08-03T14:42:28;6.00;;;5.70;;
17398;SDS011;8817;48.170;8.592;2022-08-03T14:44:56;5.70;;;5.50;;
17398;SDS011;8817;48.170;8.592;2022-08-03T14:47:23;5.13;;;4.82;;
17398;SDS011;8817;48.170;8.592;2022-08-03T14:49:50;5.97;;;5.45;;
17398;SDS011;8817;48.170;8.592;2022-08-03T14:52:18;6.15;;;5.72;;
17398;SDS011;8817;48.170;8.592;2022-08-03T14:54:45;5.70;;;5.40;;
17398;SDS011;8817;48.170;8.592;2022-08-03T14:57:12;5.93;;;5.63;;
17398;SDS011;8817;48.170;8.592;2022-08-03T14:59:39;6.00;;;5.80;;
17398;SDS011;8817;48.170;8.592;2022-08-03T15:02:06;5.70;;;5.50;;
17398;SDS011;8817;48.170;8.592;2022-08-03T15:04:33;5.72;;;5.53;;
17398;SDS011;8817;48.170;8.592;2022-08-03T15:07:00;6.00;;;5.80;;
17398;SDS011;8817;48.170;8.592;2022-08-03T15:09:28;6.18;;;5.88;;
17398;SDS011;8817;48.170;8.592;2022-08-03T15:11:55;6.25;;;5.95;;
17398;SDS011;8817;48.170;8.592;2022-08-03T15:14:22;6.30;;;6.10;;
17398;SDS011;8817;48.170;8.592;2022-08-03T15:16:49;6.60;;;6.40;;
17398;SDS011;8817;48.170;8.592;2022-08-03T15:19:16;6.32;;;6.10;;
17398;SDS011;8817;48.170;8.592;2022-08-03T15:21:44;6.72;;;6.40;;
17398;SDS011;8817;48.170;8.592;2022-08-03T15:24:11;6.85;;;6.55;;
17398;SDS011;8817;48.170;8.592;2022-08-03T15:26:40;6.63;;;6.40;;